sensor_id;sensor_type;location;lat;lon;timestamp;P1;durP1;ratioP1;P2;durP2;ratioP2
54388;SDS011;40975;50.390;8.640;2022-08-18T00:00:35;7.90;;;7.07;;
54388;SDS011;40975;50.390;8.640;2022-08-18T00:03:03;10.40;;;7.85;;
54388;SDS011;40975;50.390;8.640;2022-08-18T00:05:31;9.45;;;8.23;;
54388;SDS011;40975;50.390;8.640;2022-08-18T00:07:56;8.10;;;7.30;;
54388;SDS011;40975;50.390;8.640;2022-08-18T00:10:22;8.15;;;7.30;;
54388;SDS011;40975;50.390;8.640;2022-08-18T00:12:48;9.18;;;7.25;;
54388;SDS011;40975;50.390;8.640;2022-08-18T00:15:13;8.00;;;7.20;;
54388;SDS011;40975;50.390;8.640;2022-08-18T00:17:41;9.23;;;7.30;;
54388;SDS011;40975;50.390;8.640;2022-08-18T00:20:08;7.50;;;6.80;;
54388;SDS011;40975;50.390;8.640;2022-08-18T00:22:36;8.15;;;7.20;;
54388;SDS011;40975;50.390;8.640;2022-08-18T00:25:04;7.97;;;7.28;;
54388;SDS011;40975;50.390;8.640;2022-08-18T00:27:30;7.85;;;7.07;;
54388;SDS011;40975;50.390;8.640;2022-08-18T00:29:59;7.57;;;6.88;;
54388;SDS011;40975;50.390;8.640;2022-08-18T00:32:31;7.80;;;6.72;;
54388;SDS011;40975;50.390;8.640;2022-08-18T00:35:04;6.68;;;5.97;;
54388;SDS011;40975;50.390;8.640;2022-08-18T00:37:30;8.38;;;6.30;;
54388;SDS011;40975;50.390;8.640;2022-08-18T00:39:56;8.40;;;6.35;;
54388;SDS011;40975;50.390;8.640;2022-08-18T00:42:23;8.00;;;6.20;;
54388;SDS011;40975;50.390;8.640;2022-08-18T00:44:51;6.85;;;6.20;;
54388;SDS011;40975;50.390;8.640;2022-08-18T00:47:16;7.68;;;6.15;;
54388;SDS011;40975;50.390;8.640;2022-08-18T00:49:42;8.27;;;6.72;;
54388;SDS011;40975;50.390;8.640;2022-08-18T00:52:11;7.22;;;6.15;;
54388;SDS011;40975;50.390;8.640;2022-08-18T00:54:39;8.27;;;6.80;;
54388;SDS011;40975;50.390;8.640;2022-08-18T00:57:06;7.35;;;6.22;;
54388;SDS011;40975;50.390;8.640;2022-08-18T01:02:21;7.20;;;6.07;;
54388;SDS011;40975;50.390;8.640;2022-08-18T01:07:20;8.05;;;6.93;;
54388;SDS011;40975;50.390;8.640;2022-08-18T01:09:50;8.20;;;6.72;;
54388;SDS011;40975;50.390;8.640;2022-08-18T01:12:16;8.60;;;7.40;;
54388;SDS011;40975;50.390;8.640;2022-08-18T01:14:43;8.90;;;6.90;;
54388;SDS011;40975;50.390;8.640;2022-08-18T01:17:09;10.05;;;6.95;;
54388;SDS011;40975;50.390;8.640;2022-08-18T01:19:54;7.03;;;6.32;;
54388;SDS011;40975;50.390;8.640;2022-08-18T01:25:14;8.15;;;7.35;;
54388;SDS011;40975;50.390;8.640;2022-08-18T01:28:00;8.45;;;7.55;;
54388;SDS011;40975;50.390;8.640;2022-08-18T01:30:27;8.65;;;7.60;;
54388;SDS011;40975;50.390;8.640;2022-08-18T01:32:54;9.13;;;6.90;;
54388;SDS011;40975;50.390;8.640;2022-08-18T01:35:20;8.35;;;6.50;;
54388;SDS011;40975;50.390;8.640;2022-08-18T01:37:49;10.82;;;7.35;;
54388;SDS011;40975;50.390;8.640;2022-08-18T01:40:16;8.02;;;6.88;;
54388;SDS011;40975;50.390;8.640;2022-08-18T01:42:42;7.22;;;6.53;;
54388;SDS011;40975;50.390;8.640;2022-08-18T01:45:10;8.20;;;7.20;;
54388;SDS011;40975;50.390;8.640;2022-08-18T01:47:38;8.57;;;7.35;;
54388;SDS011;40975;50.390;8.640;2022-08-18T01:50:04;9.02;;;7.82;;
54388;SDS011;40975;50.390;8.640;2022-08-18T01:52:32;9.68;;;7.95;;
54388;SDS011;40975;50.390;8.640;2022-08-18T01:54:59;10.00;;;8.77;;
54388;SDS011;40975;50.390;8.640;2022-08-18T01:57:25;10.90;;;9.38;;
54388;SDS011;40975;50.390;8.640;2022-08-18T01:59:51;11.73;;;9.32;;
54388;SDS011;40975;50.390;8.640;2022-08-18T02:02:21;10.27;;;8.50;;
54388;SDS011;40975;50.390;8.640;2022-08-18T02:04:50;11.35;;;9.77;;
54388;SDS011;40975;50.390;8.640;2022-08-18T02:07:18;9.85;;;8.40;;
54388;SDS011;40975;50.390;8.640;2022-08-18T02:09:44;12.55;;;8.45;;
54388;SDS011;40975;50.390;8.640;2022-08-18T02:12:10;9.38;;;7.60;;
54388;SDS011;40975;50.390;8.640;2022-08-18T02:14:36;9.07;;;7.28;;
54388;SDS011;40975;50.390;8.640;2022-08-18T02:17:03;10.63;;;8.15;;
54388;SDS011;40975;50.390;8.640;2022-08-18T02:19:33;11.77;;;8.82;;
54388;SDS011;40975;50.390;8.640;2022-08-18T02:22:08;10.88;;;9.00;;
54388;SDS011;40975;50.390;8.640;2022-08-18T02:24:34;12.38;;;9.20;;
54388;SDS011;40975;50.390;8.640;2022-08-18T02:27:00;10.02;;;9.02;;
54388;SDS011;40975;50.390;8.640;2022-08-18T02:29:25;10.73;;;9.63;;
54388;SDS011;40975;50.390;8.640;2022-08-18T02:31:51;10.95;;;9.80;;
54388;SDS011;40975;50.390;8.640;2022-08-18T02:34:17;14.15;;;9.90;;
54388;SDS011;40975;50.390;8.640;2022-08-18T02:36:42;11.25;;;10.18;;
54388;SDS011;40975;50.390;8.640;2022-08-18T02:39:08;11.30;;;9.63;;
54388;SDS011;40975;50.390;8.640;2022-08-18T02:41:33;12.10;;;9.13;;
54388;SDS011;40975;50.390;8.640;2022-08-18T02:44:00;10.88;;;9.23;;
54388;SDS011;40975;50.390;8.640;2022-08-18T02:46:26;12.25;;;9.80;;
54388;SDS011;40975;50.390;8.640;2022-08-18T02:48:51;10.43;;;8.85;;
54388;SDS011;40975;50.390;8.640;2022-08-18T02:51:17;10.90;;;9.25;;
54388;SDS011;40975;50.390;8.640;2022-08-18T02:53:44;10.35;;;8.88;;
54388;SDS011;40975;50.390;8.640;2022-08-18T02:58:54;10.35;;;9.25;;
54388;SDS011;40975;50.390;8.640;2022-08-18T03:01:25;10.90;;;8.50;;
54388;SDS011;40975;50.390;8.640;2022-08-18T03:03:52;10.82;;;8.88;;
54388;SDS011;40975;50.390;8.640;2022-08-18T03:06:19;9.85;;;7.75;;
54388;SDS011;40975;50.390;8.640;2022-08-18T03:08:45;9.65;;;8.65;;
54388;SDS011;40975;50.390;8.640;2022-08-18T03:11:17;9.38;;;8.43;;
54388;SDS011;40975;50.390;8.640;2022-08-18T03:13:45;11.57;;;9.20;;
54388;SDS011;40975;50.390;8.640;2022-08-18T03:16:11;9.88;;;8.68;;
54388;SDS011;40975;50.390;8.640;2022-08-18T03:18:37;14.48;;;9.02;;
54388;SDS011;40975;50.390;8.640;2022-08-18T03:21:09;11.90;;;10.05;;
54388;SDS011;40975;50.390;8.640;2022-08-18T03:23:42;11.32;;;9.63;;
54388;SDS011;40975;50.390;8.640;2022-08-18T03:26:08;12.35;;;10.15;;
54388;SDS011;40975;50.390;8.640;2022-08-18T03:28:36;14.15;;;10.85;;
54388;SDS011;40975;50.390;8.640;2022-08-18T03:31:02;13.45;;;10.80;;
54388;SDS011;40975;50.390;8.640;2022-08-18T03:33:27;13.05;;;10.40;;
54388;SDS011;40975;50.390;8.640;2022-08-18T03:35:52;13.82;;;10.80;;
54388;SDS011;40975;50.390;8.640;2022-08-18T03:38:18;13.98;;;11.80;;
54388;SDS011;40975;50.390;8.640;2022-08-18T03:40:49;12.13;;;10.18;;
54388;SDS011;40975;50.390;8.640;2022-08-18T03:43:15;12.93;;;10.00;;
54388;SDS011;40975;50.390;8.640;2022-08-18T03:45:40;11.00;;;9.63;;
54388;SDS011;40975;50.390;8.640;2022-08-18T03:48:06;11.02;;;9.88;;
54388;SDS011;40975;50.390;8.640;2022-08-18T03:50:31;11.98;;;9.98;;
54388;SDS011;40975;50.390;8.640;2022-08-18T03:52:56;11.88;;;9.98;;
54388;SDS011;40975;50.390;8.640;2022-08-18T03:55:24;11.07;;;9.50;;
54388;SDS011;40975;50.390;8.640;2022-08-18T03:57:52;10.52;;;9.43;;
54388;SDS011;40975;50.390;8.640;2022-08-18T04:00:19;12.70;;;11.18;;
54388;SDS011;40975;50.390;8.640;2022-08-18T04:02:45;14.18;;;11.25;;
54388;SDS011;40975;50.390;8.640;2022-08-18T04:05:11;14.10;;;11.13;;
54388;SDS011;40975;50.390;8.640;2022-08-18T04:07:38;16.15;;;12.05;;
54388;SDS011;40975;50.390;8.640;2022-08-18T04:10:04;14.32;;;11.38;;
54388;SDS011;40975;50.390;8.640;2022-08-18T04:12:29;12.38;;;10.55;;
54388;SDS011;40975;50.390;8.640;2022-08-18T04:14:55;14.45;;;10.57;;
54388;SDS011;40975;50.390;8.640;2022-08-18T04:17:21;10.77;;;9.65;;
54388;SDS011;40975;50.390;8.640;2022-08-18T04:19:52;12.63;;;10.13;;
54388;SDS011;40975;50.390;8.640;2022-08-18T04:22:19;10.68;;;9.52;;
54388;SDS011;40975;50.390;8.640;2022-08-18T04:24:44;13.63;;;10.38;;
54388;SDS011;40975;50.390;8.640;2022-08-18T04:27:11;10.50;;;9.40;;
54388;SDS011;40975;50.390;8.640;2022-08-18T04:29:37;10.10;;;9.10;;
54388;SDS011;40975;50.390;8.640;2022-08-18T04:32:02;12.32;;;10.07;;
54388;SDS011;40975;50.390;8.640;2022-08-18T04:34:29;12.80;;;9.82;;
54388;SDS011;40975;50.390;8.640;2022-08-18T04:36:55;13.15;;;9.68;;
54388;SDS011;40975;50.390;8.640;2022-08-18T04:39:20;13.55;;;10.65;;
54388;SDS011;40975;50.390;8.640;2022-08-18T04:41:46;13.30;;;10.23;;
54388;SDS011;40975;50.390;8.640;2022-08-18T04:44:12;12.35;;;10.77;;
54388;SDS011;40975;50.390;8.640;2022-08-18T04:46:40;12.27;;;10.02;;
54388;SDS011;40975;50.390;8.640;2022-08-18T04:49:08;11.77;;;9.43;;
54388;SDS011;40975;50.390;8.640;2022-08-18T04:51:35;15.00;;;10.40;;
54388;SDS011;40975;50.390;8.640;2022-08-18T04:54:03;13.23;;;10.00;;
54388;SDS011;40975;50.390;8.640;2022-08-18T04:56:30;12.48;;;10.63;;
54388;SDS011;40975;50.390;8.640;2022-08-18T04:59:03;13.73;;;10.25;;
54388;SDS011;40975;50.390;8.640;2022-08-18T05:01:38;10.68;;;9.40;;
54388;SDS011;40975;50.390;8.640;2022-08-18T05:04:05;11.90;;;9.45;;
54388;SDS011;40975;50.390;8.640;2022-08-18T05:06:31;11.63;;;8.95;;
54388;SDS011;40975;50.390;8.640;2022-08-18T05:08:58;11.15;;;8.27;;
54388;SDS011;40975;50.390;8.640;2022-08-18T05:11:27;12.63;;;9.52;;
54388;SDS011;40975;50.390;8.640;2022-08-18T05:13:55;11.43;;;9.75;;
54388;SDS011;40975;50.390;8.640;2022-08-18T05:16:22;10.30;;;9.20;;
54388;SDS011;40975;50.390;8.640;2022-08-18T05:18:49;11.48;;;10.27;;
54388;SDS011;40975;50.390;8.640;2022-08-18T05:21:15;11.00;;;8.90;;
54388;SDS011;40975;50.390;8.640;2022-08-18T05:23:41;10.80;;;8.90;;
54388;SDS011;40975;50.390;8.640;2022-08-18T05:26:07;10.68;;;9.00;;
54388;SDS011;40975;50.390;8.640;2022-08-18T05:28:34;10.30;;;9.20;;
54388;SDS011;40975;50.390;8.640;2022-08-18T05:31:07;13.13;;;9.35;;
54388;SDS011;40975;50.390;8.640;2022-08-18T05:33:35;10.65;;;8.70;;
54388;SDS011;40975;50.390;8.640;2022-08-18T05:36:03;11.00;;;8.70;;
54388;SDS011;40975;50.390;8.640;2022-08-18T05:41:41;9.63;;;8.32;;
54388;SDS011;40975;50.390;8.640;2022-08-18T05:44:14;10.57;;;9.48;;
54388;SDS011;40975;50.390;8.640;2022-08-18T05:49:14;9.77;;;8.77;;
54388;SDS011;40975;50.390;8.640;2022-08-18T05:51:47;15.52;;;9.55;;
54388;SDS011;40975;50.390;8.640;2022-08-18T05:54:16;10.25;;;9.23;;
54388;SDS011;40975;50.390;8.640;2022-08-18T05:57:14;12.50;;;9.00;;
54388;SDS011;40975;50.390;8.640;2022-08-18T05:59:42;11.18;;;9.55;;
54388;SDS011;40975;50.390;8.640;2022-08-18T06:07:11;11.35;;;9.27;;
54388;SDS011;40975;50.390;8.640;2022-08-18T06:09:46;13.07;;;9.35;;
54388;SDS011;40975;50.390;8.640;2022-08-18T06:12:36;11.60;;;9.63;;
54388;SDS011;40975;50.390;8.640;2022-08-18T06:23:39;12.18;;;9.90;;
54388;SDS011;40975;50.390;8.640;2022-08-18T06:26:11;11.13;;;9.35;;
54388;SDS011;40975;50.390;8.640;2022-08-18T06:28:56;11.70;;;9.55;;
54388;SDS011;40975;50.390;8.640;2022-08-18T06:31:37;10.38;;;9.35;;
54388;SDS011;40975;50.390;8.640;2022-08-18T06:36:53;10.65;;;9.35;;
54388;SDS011;40975;50.390;8.640;2022-08-18T06:39:34;10.98;;;9.52;;
54388;SDS011;40975;50.390;8.640;2022-08-18T06:42:05;10.38;;;8.98;;
54388;SDS011;40975;50.390;8.640;2022-08-18T06:44:35;10.68;;;9.50;;
54388;SDS011;40975;50.390;8.640;2022-08-18T06:49:44;11.82;;;10.45;;
54388;SDS011;40975;50.390;8.640;2022-08-18T06:54:56;16.20;;;10.45;;
54388;SDS011;40975;50.390;8.640;2022-08-18T06:57:26;13.65;;;10.07;;
54388;SDS011;40975;50.390;8.640;2022-08-18T07:02:42;12.95;;;11.13;;
54388;SDS011;40975;50.390;8.640;2022-08-18T07:05:32;12.32;;;10.07;;
54388;SDS011;40975;50.390;8.640;2022-08-18T07:10:45;15.60;;;12.43;;
54388;SDS011;40975;50.390;8.640;2022-08-18T07:15:47;17.40;;;13.93;;
54388;SDS011;40975;50.390;8.640;2022-08-18T07:18:14;15.57;;;13.30;;
54388;SDS011;40975;50.390;8.640;2022-08-18T07:20:47;15.63;;;13.45;;
54388;SDS011;40975;50.390;8.640;2022-08-18T07:26:25;13.38;;;11.98;;
54388;SDS011;40975;50.390;8.640;2022-08-18T07:28:45;15.88;;;12.43;;
54388;SDS011;40975;50.390;8.640;2022-08-18T07:36:48;15.80;;;12.13;;
54388;SDS011;40975;50.390;8.640;2022-08-18T07:47:12;15.75;;;11.85;;
54388;SDS011;40975;50.390;8.640;2022-08-18T07:49:43;14.82;;;12.90;;
54388;SDS011;40975;50.390;8.640;2022-08-18T07:52:21;14.30;;;12.40;;
54388;SDS011;40975;50.390;8.640;2022-08-18T07:54:58;15.43;;;13.38;;
54388;SDS011;40975;50.390;8.640;2022-08-18T07:57:42;14.40;;;11.27;;
54388;SDS011;40975;50.390;8.640;2022-08-18T08:02:48;13.88;;;11.30;;
54388;SDS011;40975;50.390;8.640;2022-08-18T08:13:42;13.50;;;11.27;;
54388;SDS011;40975;50.390;8.640;2022-08-18T08:16:27;11.90;;;10.50;;
54388;SDS011;40975;50.390;8.640;2022-08-18T08:19:05;13.07;;;10.98;;
54388;SDS011;40975;50.390;8.640;2022-08-18T08:21:41;12.07;;;10.40;;
54388;SDS011;40975;50.390;8.640;2022-08-18T08:24:20;11.75;;;9.80;;
54388;SDS011;40975;50.390;8.640;2022-08-18T08:32:15;12.65;;;10.63;;
54388;SDS011;40975;50.390;8.640;2022-08-18T08:34:55;11.75;;;10.57;;
54388;SDS011;40975;50.390;8.640;2022-08-18T08:37:29;11.48;;;10.23;;
54388;SDS011;40975;50.390;8.640;2022-08-18T08:40:05;11.65;;;9.95;;
54388;SDS011;40975;50.390;8.640;2022-08-18T08:45:32;11.88;;;10.75;;
54388;SDS011;40975;50.390;8.640;2022-08-18T08:48:20;11.63;;;9.30;;
54388;SDS011;40975;50.390;8.640;2022-08-18T08:56:05;12.60;;;10.43;;
54388;SDS011;40975;50.390;8.640;2022-08-18T08:58:48;11.40;;;10.20;;
54388;SDS011;40975;50.390;8.640;2022-08-18T09:04:38;12.55;;;9.88;;
54388;SDS011;40975;50.390;8.640;2022-08-18T09:07:18;12.00;;;10.60;;
54388;SDS011;40975;50.390;8.640;2022-08-18T09:15:12;14.23;;;11.40;;
54388;SDS011;40975;50.390;8.640;2022-08-18T09:23:20;14.75;;;9.60;;
54388;SDS011;40975;50.390;8.640;2022-08-18T09:25:51;13.25;;;10.13;;
54388;SDS011;40975;50.390;8.640;2022-08-18T09:31:20;11.75;;;10.07;;
54388;SDS011;40975;50.390;8.640;2022-08-18T09:33:55;14.23;;;9.85;;
54388;SDS011;40975;50.390;8.640;2022-08-18T09:42:33;11.68;;;9.55;;
54388;SDS011;40975;50.390;8.640;2022-08-18T09:45:05;10.63;;;9.52;;
54388;SDS011;40975;50.390;8.640;2022-08-18T09:59:52;11.80;;;9.07;;
54388;SDS011;40975;50.390;8.640;2022-08-18T10:13:23;10.85;;;8.80;;
54388;SDS011;40975;50.390;8.640;2022-08-18T10:16:13;9.65;;;8.65;;
54388;SDS011;40975;50.390;8.640;2022-08-18T10:24:22;8.85;;;7.82;;
54388;SDS011;40975;50.390;8.640;2022-08-18T10:37:12;9.98;;;8.43;;
54388;SDS011;40975;50.390;8.640;2022-08-18T10:39:47;10.02;;;8.77;;
54388;SDS011;40975;50.390;8.640;2022-08-18T10:42:26;10.30;;;9.23;;
54388;SDS011;40975;50.390;8.640;2022-08-18T10:47:28;9.88;;;8.93;;
54388;SDS011;40975;50.390;8.640;2022-08-18T10:49:55;10.68;;;9.68;;
54388;SDS011;40975;50.390;8.640;2022-08-18T10:55:22;9.82;;;8.75;;
54388;SDS011;40975;50.390;8.640;2022-08-18T10:58:26;9.55;;;8.55;;
54388;SDS011;40975;50.390;8.640;2022-08-18T11:04:29;9.50;;;7.97;;
54388;SDS011;40975;50.390;8.640;2022-08-18T11:07:09;9.63;;;8.60;;
54388;SDS011;40975;50.390;8.640;2022-08-18T11:09:40;8.70;;;7.85;;
54388;SDS011;40975;50.390;8.640;2022-08-18T11:12:07;9.65;;;8.65;;
54388;SDS011;40975;50.390;8.640;2022-08-18T11:15:20;8.68;;;7.78;;
54388;SDS011;40975;50.390;8.640;2022-08-18T11:17:35;8.88;;;7.97;;
54388;SDS011;40975;50.390;8.640;2022-08-18T11:20:08;10.77;;;8.48;;
54388;SDS011;40975;50.390;8.640;2022-08-18T11:22:37;13.73;;;8.43;;
54388;SDS011;40975;50.390;8.640;2022-08-18T11:25:18;10.00;;;8.30;;
54388;SDS011;40975;50.390;8.640;2022-08-18T11:27:48;9.27;;;8.30;;
54388;SDS011;40975;50.390;8.640;2022-08-18T11:30:13;8.25;;;7.40;;
54388;SDS011;40975;50.390;8.640;2022-08-18T11:32:39;9.65;;;8.38;;
54388;SDS011;40975;50.390;8.640;2022-08-18T11:40:52;8.80;;;7.90;;
54388;SDS011;40975;50.390;8.640;2022-08-18T11:43:02;10.05;;;7.78;;
54388;SDS011;40975;50.390;8.640;2022-08-18T11:50:46;8.75;;;7.93;;
54388;SDS011;40975;50.390;8.640;2022-08-18T11:58:50;9.32;;;8.13;;
54388;SDS011;40975;50.390;8.640;2022-08-18T12:09:23;10.73;;;8.57;;
54388;SDS011;40975;50.390;8.640;2022-08-18T12:11:57;9.57;;;8.10;;
54388;SDS011;40975;50.390;8.640;2022-08-18T12:14:27;9.23;;;8.32;;
54388;SDS011;40975;50.390;8.640;2022-08-18T12:16:55;9.40;;;8.32;;
54388;SDS011;40975;50.390;8.640;2022-08-18T12:19:21;9.50;;;8.50;;
54388;SDS011;40975;50.390;8.640;2022-08-18T12:21:54;9.60;;;8.60;;
54388;SDS011;40975;50.390;8.640;2022-08-18T12:24:29;9.95;;;8.30;;
54388;SDS011;40975;50.390;8.640;2022-08-18T12:26:56;10.90;;;8.80;;
54388;SDS011;40975;50.390;8.640;2022-08-18T12:29:23;8.95;;;8.05;;
54388;SDS011;40975;50.390;8.640;2022-08-18T12:31:49;9.93;;;8.82;;
54388;SDS011;40975;50.390;8.640;2022-08-18T12:34:16;9.45;;;8.48;;
54388;SDS011;40975;50.390;8.640;2022-08-18T12:36:50;8.95;;;7.85;;
54388;SDS011;40975;50.390;8.640;2022-08-18T12:39:17;9.05;;;7.78;;
54388;SDS011;40975;50.390;8.640;2022-08-18T12:41:42;10.77;;;8.00;;
54388;SDS011;40975;50.390;8.640;2022-08-18T12:44:08;10.25;;;9.15;;
54388;SDS011;40975;50.390;8.640;2022-08-18T12:46:33;9.75;;;8.77;;
54388;SDS011;40975;50.390;8.640;2022-08-18T12:49:00;9.52;;;8.52;;
54388;SDS011;40975;50.390;8.640;2022-08-18T12:51:29;10.25;;;8.77;;
54388;SDS011;40975;50.390;8.640;2022-08-18T12:53:55;10.02;;;8.93;;
54388;SDS011;40975;50.390;8.640;2022-08-18T12:56:22;9.25;;;8.40;;
54388;SDS011;40975;50.390;8.640;2022-08-18T12:58:49;9.75;;;8.82;;
54388;SDS011;40975;50.390;8.640;2022-08-18T13:01:16;8.50;;;7.75;;
54388;SDS011;40975;50.390;8.640;2022-08-18T13:03:43;10.00;;;8.18;;
54388;SDS011;40975;50.390;8.640;2022-08-18T13:06:09;9.95;;;8.63;;
54388;SDS011;40975;50.390;8.640;2022-08-18T13:08:35;8.93;;;8.07;;
54388;SDS011;40975;50.390;8.640;2022-08-18T13:11:01;9.48;;;8.57;;
54388;SDS011;40975;50.390;8.640;2022-08-18T13:13:27;8.55;;;7.65;;
54388;SDS011;40975;50.390;8.640;2022-08-18T13:15:52;10.10;;;8.18;;
54388;SDS011;40975;50.390;8.640;2022-08-18T13:18:19;10.35;;;9.30;;
54388;SDS011;40975;50.390;8.640;2022-08-18T13:20:44;8.65;;;7.75;;
54388;SDS011;40975;50.390;8.640;2022-08-18T13:23:10;9.07;;;8.18;;
54388;SDS011;40975;50.390;8.640;2022-08-18T13:25:36;10.32;;;8.77;;
54388;SDS011;40975;50.390;8.640;2022-08-18T13:28:02;8.77;;;7.97;;
54388;SDS011;40975;50.390;8.640;2022-08-18T13:30:28;8.82;;;7.95;;
54388;SDS011;40975;50.390;8.640;2022-08-18T13:32:54;9.05;;;8.25;;
54388;SDS011;40975;50.390;8.640;2022-08-18T13:35:19;8.75;;;7.95;;
54388;SDS011;40975;50.390;8.640;2022-08-18T13:37:45;8.80;;;7.90;;
54388;SDS011;40975;50.390;8.640;2022-08-18T13:40:10;8.88;;;7.75;;
54388;SDS011;40975;50.390;8.640;2022-08-18T13:42:44;9.02;;;8.10;;
54388;SDS011;40975;50.390;8.640;2022-08-18T13:45:12;8.60;;;7.68;;
54388;SDS011;40975;50.390;8.640;2022-08-18T13:47:39;8.13;;;7.40;;
54388;SDS011;40975;50.390;8.640;2022-08-18T13:50:05;8.95;;;8.15;;
54388;SDS011;40975;50.390;8.640;2022-08-18T13:52:30;8.52;;;7.72;;
54388;SDS011;40975;50.390;8.640;2022-08-18T13:54:56;9.25;;;8.45;;
54388;SDS011;40975;50.390;8.640;2022-08-18T13:57:22;10.45;;;8.70;;
54388;SDS011;40975;50.390;8.640;2022-08-18T13:59:47;9.15;;;8.32;;
54388;SDS011;40975;50.390;8.640;2022-08-18T14:02:12;9.55;;;8.43;;
54388;SDS011;40975;50.390;8.640;2022-08-18T14:04:38;9.07;;;8.20;;
54388;SDS011;40975;50.390;8.640;2022-08-18T14:07:04;8.40;;;7.63;;
54388;SDS011;40975;50.390;8.640;2022-08-18T14:09:31;8.45;;;7.65;;
54388;SDS011;40975;50.390;8.640;2022-08-18T14:11:57;8.77;;;6.97;;
54388;SDS011;40975;50.390;8.640;2022-08-18T14:14:23;10.07;;;7.07;;
54388;SDS011;40975;50.390;8.640;2022-08-18T14:16:48;7.82;;;7.13;;
54388;SDS011;40975;50.390;8.640;2022-08-18T14:19:14;8.38;;;7.50;;
54388;SDS011;40975;50.390;8.640;2022-08-18T14:21:58;8.57;;;7.80;;
54388;SDS011;40975;50.390;8.640;2022-08-18T14:24:42;8.48;;;7.68;;
54388;SDS011;40975;50.390;8.640;2022-08-18T14:27:28;6.40;;;5.68;;
54388;SDS011;40975;50.390;8.640;2022-08-18T14:29:56;7.28;;;6.60;;
54388;SDS011;40975;50.390;8.640;2022-08-18T14:32:22;6.20;;;5.63;;
54388;SDS011;40975;50.390;8.640;2022-08-18T14:34:51;7.35;;;6.15;;
54388;SDS011;40975;50.390;8.640;2022-08-18T14:37:17;6.60;;;5.75;;
54388;SDS011;40975;50.390;8.640;2022-08-18T14:39:43;6.38;;;5.78;;
54388;SDS011;40975;50.390;8.640;2022-08-18T14:42:09;6.18;;;5.57;;
54388;SDS011;40975;50.390;8.640;2022-08-18T14:44:38;6.32;;;5.68;;
54388;SDS011;40975;50.390;8.640;2022-08-18T14:47:03;6.47;;;5.70;;
54388;SDS011;40975;50.390;8.640;2022-08-18T14:49:30;7.18;;;6.47;;
54388;SDS011;40975;50.390;8.640;2022-08-18T14:51:56;8.45;;;7.40;;
54388;SDS011;40975;50.390;8.640;2022-08-18T14:54:22;12.10;;;6.88;;
54388;SDS011;40975;50.390;8.640;2022-08-18T14:56:48;7.63;;;6.93;;
54388;SDS011;40975;50.390;8.640;2022-08-18T14:59:14;7.90;;;6.60;;
54388;SDS011;40975;50.390;8.640;2022-08-18T15:01:39;7.90;;;7.20;;
54388;SDS011;40975;50.390;8.640;2022-08-18T15:04:05;9.98;;;6.80;;
54388;SDS011;40975;50.390;8.640;2022-08-18T15:06:30;6.80;;;6.18;;
54388;SDS011;40975;50.390;8.640;2022-08-18T15:08:56;7.63;;;6.85;;
54388;SDS011;40975;50.390;8.640;2022-08-18T15:11:21;6.75;;;6.05;;
54388;SDS011;40975;50.390;8.640;2022-08-18T15:13:46;6.85;;;6.05;;
54388;SDS011;40975;50.390;8.640;2022-08-18T15:16:12;6.18;;;5.68;;
54388;SDS011;40975;50.390;8.640;2022-08-18T15:18:42;7.32;;;6.00;;
54388;SDS011;40975;50.390;8.640;2022-08-18T15:21:09;7.72;;;6.15;;
54388;SDS011;40975;50.390;8.640;2022-08-18T15:23:53;7.15;;;6.45;;
54388;SDS011;40975;50.390;8.640;2022-08-18T15:26:37;7.70;;;6.82;;
54388;SDS011;40975;50.390;8.640;2022-08-18T15:29:05;8.63;;;7.50;;
54388;SDS011;40975;50.390;8.640;2022-08-18T15:31:35;7.30;;;6.60;;
54388;SDS011;40975;50.390;8.640;2022-08-18T15:34:02;8.10;;;7.30;;
54388;SDS011;40975;50.390;8.640;2022-08-18T15:36:31;8.57;;;6.97;;
54388;SDS011;40975;50.390;8.640;2022-08-18T15:38:58;7.88;;;6.95;;
54388;SDS011;40975;50.390;8.640;2022-08-18T15:41:29;8.00;;;7.30;;
54388;SDS011;40975;50.390;8.640;2022-08-18T15:43:58;8.25;;;6.63;;
54388;SDS011;40975;50.390;8.640;2022-08-18T15:46:24;8.13;;;7.38;;
54388;SDS011;40975;50.390;8.640;2022-08-18T15:48:49;9.55;;;7.10;;
54388;SDS011;40975;50.390;8.640;2022-08-18T15:51:15;7.57;;;6.88;;
54388;SDS011;40975;50.390;8.640;2022-08-18T15:53:41;7.35;;;6.65;;
54388;SDS011;40975;50.390;8.640;2022-08-18T15:56:11;6.93;;;6.25;;
54388;SDS011;40975;50.390;8.640;2022-08-18T15:58:47;9.15;;;6.93;;
54388;SDS011;40975;50.390;8.640;2022-08-18T16:01:13;8.13;;;6.82;;
54388;SDS011;40975;50.390;8.640;2022-08-18T16:03:39;8.52;;;7.63;;
54388;SDS011;40975;50.390;8.640;2022-08-18T16:06:05;8.38;;;7.53;;
54388;SDS011;40975;50.390;8.640;2022-08-18T16:08:36;7.07;;;6.38;;
54388;SDS011;40975;50.390;8.640;2022-08-18T16:11:05;7.20;;;6.50;;
54388;SDS011;40975;50.390;8.640;2022-08-18T16:13:32;7.47;;;6.75;;
54388;SDS011;40975;50.390;8.640;2022-08-18T16:15:58;8.10;;;6.88;;
54388;SDS011;40975;50.390;8.640;2022-08-18T16:18:23;8.65;;;7.22;;
54388;SDS011;40975;50.390;8.640;2022-08-18T16:20:48;7.90;;;6.50;;
54388;SDS011;40975;50.390;8.640;2022-08-18T16:23:14;8.23;;;7.18;;
54388;SDS011;40975;50.390;8.640;2022-08-18T16:25:40;9.15;;;7.50;;
54388;SDS011;40975;50.390;8.640;2022-08-18T16:28:08;7.97;;;7.18;;
54388;SDS011;40975;50.390;8.640;2022-08-18T16:30:34;8.02;;;7.22;;
54388;SDS011;40975;50.390;8.640;2022-08-18T16:33:00;8.00;;;7.20;;
54388;SDS011;40975;50.390;8.640;2022-08-18T16:35:27;8.75;;;7.60;;
54388;SDS011;40975;50.390;8.640;2022-08-18T16:37:53;8.93;;;8.00;;
54388;SDS011;40975;50.390;8.640;2022-08-18T16:40:18;9.13;;;7.90;;
54388;SDS011;40975;50.390;8.640;2022-08-18T16:42:45;8.50;;;7.22;;
54388;SDS011;40975;50.390;8.640;2022-08-18T16:45:11;9.50;;;7.63;;
54388;SDS011;40975;50.390;8.640;2022-08-18T16:47:37;8.02;;;7.22;;
54388;SDS011;40975;50.390;8.640;2022-08-18T16:50:08;8.82;;;7.07;;
54388;SDS011;40975;50.390;8.640;2022-08-18T16:52:35;9.52;;;8.30;;
54388;SDS011;40975;50.390;8.640;2022-08-18T16:55:03;9.57;;;7.72;;
54388;SDS011;40975;50.390;8.640;2022-08-18T16:57:30;10.45;;;8.10;;
54388;SDS011;40975;50.390;8.640;2022-08-18T17:00:13;11.85;;;8.23;;
54388;SDS011;40975;50.390;8.640;2022-08-18T17:03:01;11.10;;;8.80;;
54388;SDS011;40975;50.390;8.640;2022-08-18T17:05:46;9.40;;;8.40;;
54388;SDS011;40975;50.390;8.640;2022-08-18T17:08:12;10.20;;;8.40;;
54388;SDS011;40975;50.390;8.640;2022-08-18T17:10:37;9.90;;;8.70;;
54388;SDS011;40975;50.390;8.640;2022-08-18T17:13:04;9.75;;;8.23;;
54388;SDS011;40975;50.390;8.640;2022-08-18T17:15:29;9.52;;;8.63;;
54388;SDS011;40975;50.390;8.640;2022-08-18T17:17:55;11.38;;;8.68;;
54388;SDS011;40975;50.390;8.640;2022-08-18T17:20:21;10.05;;;9.02;;
54388;SDS011;40975;50.390;8.640;2022-08-18T17:22:46;11.63;;;9.25;;
54388;SDS011;40975;50.390;8.640;2022-08-18T17:25:11;10.90;;;8.82;;
54388;SDS011;40975;50.390;8.640;2022-08-18T17:27:44;10.50;;;9.40;;
54388;SDS011;40975;50.390;8.640;2022-08-18T17:30:16;9.63;;;8.73;;
54388;SDS011;40975;50.390;8.640;2022-08-18T17:32:52;9.68;;;8.73;;
54388;SDS011;40975;50.390;8.640;2022-08-18T17:35:22;11.27;;;9.50;;
54388;SDS011;40975;50.390;8.640;2022-08-18T17:40:21;9.45;;;8.48;;
54388;SDS011;40975;50.390;8.640;2022-08-18T17:42:50;9.68;;;8.77;;
54388;SDS011;40975;50.390;8.640;2022-08-18T17:45:16;10.05;;;8.88;;
54388;SDS011;40975;50.390;8.640;2022-08-18T17:47:48;10.30;;;9.30;;
54388;SDS011;40975;50.390;8.640;2022-08-18T17:53:37;10.55;;;9.43;;
54388;SDS011;40975;50.390;8.640;2022-08-18T17:56:08;10.38;;;9.15;;
54388;SDS011;40975;50.390;8.640;2022-08-18T17:58:45;10.20;;;9.02;;